createdAt,value
2019-02-27T06:51:53.633Z,42.43
2019-02-27T06:52:53.535Z,42.54
2019-02-27T06:54:53.500Z,42.53
2019-02-27T06:57:53.409Z,47.01
2019-02-27T06:58:53.386Z,43.66
2019-02-27T07:00:35.804Z,48.99
2019-02-27T07:01:31.734Z,48.97
2019-02-27T07:02:31.710Z,43.07
2019-02-27T07:03:32.960Z,47.78
2019-02-27T07:12:54.711Z,48.51
2019-02-27T07:17:41.829Z,46.74
2019-02-27T07:20:48.441Z,47.20
2019-02-27T07:21:48.432Z,48.33
2019-02-27T07:22:48.425Z,47.90
2019-02-27T07:23:48.418Z,47.32
2019-02-27T07:24:48.412Z,48.46
2019-02-27T07:25:48.406Z,47.09
2019-02-27T07:26:50.271Z,45.30
2019-02-27T07:27:48.385Z,42.05
2019-02-27T07:28:48.379Z,45.06
2019-02-27T07:29:48.373Z,45.25
2019-02-27T07:30:48.364Z,45.48
2019-02-27T07:31:49.510Z,45.28
2019-02-27T07:32:48.377Z,41.32
2019-02-27T07:33:48.340Z,45.17
2019-02-27T07:34:49.771Z,41.16
2019-02-27T07:35:48.377Z,41.26
2019-02-27T07:36:48.320Z,39.27
2019-02-27T07:37:48.378Z,39.86
2019-02-27T07:38:48.301Z,40.05
2019-02-27T07:39:48.302Z,40.21
2019-02-27T07:40:48.284Z,43.62
2019-02-27T07:41:48.277Z,47.11
2019-02-27T07:42:48.270Z,46.94
2019-02-27T07:43:48.262Z,44.63
2019-02-27T07:44:48.266Z,41.97
2019-02-27T07:45:48.254Z,39.59
2019-02-27T07:46:48.241Z,39.70
2019-02-27T07:47:48.235Z,39.66
2019-02-27T07:48:48.224Z,39.47
2019-02-27T07:49:48.337Z,39.60
2019-02-27T07:50:49.085Z,39.60
2019-02-27T07:51:48.600Z,39.68
2019-02-27T07:52:48.197Z,39.67
2019-02-27T07:53:48.189Z,40.28
2019-02-27T07:54:48.191Z,41.12
2019-02-27T07:55:48.176Z,40.69
2019-02-27T07:56:48.168Z,41.75
2019-02-27T07:57:48.158Z,41.14
2019-02-27T07:58:48.155Z,41.30
2019-02-27T07:59:48.159Z,40.12
2019-02-27T08:00:49.820Z,39.85
2019-02-27T08:01:48.143Z,39.93
2019-02-27T08:02:48.122Z,40.26
2019-02-27T08:03:48.112Z,40.21
2019-02-27T08:04:48.105Z,40.01
2019-02-27T08:05:48.101Z,40.06
2019-02-27T08:06:48.091Z,40.09
2019-02-27T08:07:49.030Z,40.09
2019-02-27T08:08:48.084Z,40.15
2019-02-27T08:09:48.069Z,40.08
2019-02-27T08:10:48.066Z,40.37
2019-02-27T08:11:48.062Z,40.27
2019-02-27T08:12:48.052Z,40.47
2019-02-27T08:13:48.043Z,40.26
2019-02-27T08:14:48.032Z,40.37
2019-02-27T08:15:48.392Z,40.22
2019-02-27T08:16:48.213Z,40.24
2019-02-27T08:17:48.091Z,40.19
2019-02-27T08:18:48.006Z,40.23
2019-02-27T08:19:47.993Z,40.15
2019-02-27T08:20:48.160Z,40.24
2019-02-27T08:21:47.979Z,40.28
2019-02-27T08:22:48.242Z,40.62
2019-02-27T08:23:47.965Z,40.33
2019-02-27T08:24:47.958Z,40.34
2019-02-27T08:25:47.954Z,40.34
2019-02-27T08:26:49.123Z,40.39
2019-02-27T08:27:48.319Z,40.44
2019-02-27T08:28:47.930Z,40.45
2019-02-27T08:29:47.922Z,40.27
2019-02-27T08:30:47.915Z,40.22
2019-02-27T08:31:47.910Z,40.23
2019-02-27T08:32:47.899Z,40.31
2019-02-27T08:33:47.890Z,40.42
2019-02-27T08:34:47.893Z,40.44
2019-02-27T08:35:47.891Z,40.29
2019-02-27T08:36:47.867Z,40.33
2019-02-27T08:37:47.874Z,40.34
2019-02-27T08:38:47.853Z,40.63
2019-02-27T08:39:47.841Z,40.42
2019-02-27T08:40:47.851Z,40.36
2019-02-27T08:41:47.828Z,40.21
2019-02-27T08:42:47.817Z,40.31
2019-02-27T08:43:47.817Z,40.19
2019-02-27T08:44:47.807Z,40.34
2019-02-27T08:45:47.808Z,40.20
2019-02-27T08:46:47.797Z,40.25
2019-02-27T08:47:49.024Z,40.36
2019-02-27T08:48:50.107Z,40.25
2019-02-27T08:49:47.763Z,40.25
2019-02-27T08:50:47.766Z,40.20
2019-02-27T08:51:47.750Z,40.24
2019-02-27T08:52:50.861Z,40.25
2019-02-27T08:53:47.735Z,40.23
2019-02-27T08:54:47.728Z,40.19
2019-02-27T08:55:47.732Z,40.19
2019-02-27T08:56:47.958Z,40.18
2019-02-27T08:57:49.710Z,40.26
2019-02-27T08:58:47.697Z,40.33
2019-02-27T08:59:47.690Z,40.20
2019-02-27T09:00:48.094Z,40.38
2019-02-27T09:01:47.676Z,40.40
2019-02-27T09:02:47.669Z,40.24
2019-02-27T09:03:47.666Z,40.26
2019-02-27T09:04:47.654Z,40.71
2019-02-27T09:05:47.657Z,41.96
2019-02-27T09:06:47.638Z,41.03
2019-02-27T09:07:47.631Z,40.64
2019-02-27T09:08:47.619Z,40.79
2019-02-27T09:09:51.402Z,41.36
2019-02-27T09:10:47.614Z,41.71
2019-02-27T09:11:47.600Z,41.44
2019-02-27T09:12:48.791Z,44.31
2019-02-27T09:13:47.585Z,44.73
2019-02-27T09:14:47.582Z,43.91
2019-02-27T09:15:47.581Z,42.66
2019-02-27T09:16:47.560Z,42.54
2019-02-27T09:17:47.573Z,41.66
2019-02-27T09:18:47.541Z,41.02
2019-02-27T09:19:47.535Z,40.96
2019-02-27T09:20:47.527Z,41.08
2019-02-27T09:21:47.521Z,42.61
2019-02-27T09:22:47.626Z,44.50
2019-02-27T09:23:47.508Z,43.15
2019-02-27T09:24:47.497Z,42.09
2019-02-27T09:25:47.487Z,41.72
2019-02-27T09:26:47.490Z,41.03
2019-02-27T09:27:47.471Z,41.46
2019-02-27T09:28:47.466Z,41.83
2019-02-27T09:29:49.272Z,41.62
2019-02-27T09:30:47.449Z,41.80
2019-02-27T09:31:50.856Z,41.99
2019-02-27T09:32:47.431Z,41.18
2019-02-27T09:33:47.425Z,41.21
2019-02-27T09:34:47.415Z,42.29
2019-02-27T09:35:47.406Z,41.47
2019-02-27T09:36:49.121Z,40.51
2019-02-27T09:37:48.320Z,41.31
2019-02-27T09:38:47.388Z,41.14
2019-02-27T09:39:47.373Z,41.00
2019-02-27T09:40:47.366Z,41.01
2019-02-27T09:41:47.368Z,41.10
2019-02-27T09:42:50.180Z,41.09
2019-02-27T09:43:48.343Z,41.61
2019-02-27T09:44:47.334Z,41.44
2019-02-27T09:45:47.330Z,41.37
2019-02-27T09:46:49.926Z,41.09
2019-02-27T09:47:47.321Z,41.49
2019-02-27T09:48:47.299Z,40.85
2019-02-27T09:49:47.294Z,42.12
2019-02-27T09:50:48.362Z,41.03
2019-02-27T09:51:47.285Z,41.34
2019-02-27T09:52:47.272Z,45.87
2019-02-27T09:53:47.262Z,44.50
2019-02-27T09:54:47.610Z,41.46
2019-02-27T09:55:47.244Z,40.79
2019-02-27T09:56:47.248Z,41.39
2019-02-27T09:57:47.230Z,41.45
2019-02-27T09:58:47.221Z,40.61
2019-02-27T09:59:47.218Z,41.37
2019-02-27T10:00:47.211Z,41.62
2019-02-27T10:01:47.199Z,42.29
2019-02-27T10:02:47.206Z,41.09
2019-02-27T10:03:47.184Z,40.46
2019-02-27T10:04:47.179Z,40.63
2019-02-27T10:05:47.835Z,40.67
2019-02-27T10:06:47.163Z,40.36
2019-02-27T10:07:50.959Z,40.72
2019-02-27T10:08:47.144Z,40.45
2019-02-27T10:09:48.103Z,42.89
2019-02-27T10:10:47.129Z,42.61
2019-02-27T10:11:47.122Z,44.48
2019-02-27T10:12:47.123Z,44.33
2019-02-27T10:13:47.110Z,43.99
2019-02-27T10:14:47.955Z,44.57
2019-02-27T10:15:47.097Z,43.89
2019-02-27T10:16:47.086Z,44.47
2019-02-27T10:17:47.087Z,45.25
2019-02-27T10:18:47.069Z,44.40
2019-02-27T10:19:47.065Z,44.35
2019-02-27T10:20:47.052Z,44.25
2019-02-27T10:21:47.631Z,44.79
2019-02-27T10:22:47.049Z,41.10
2019-02-27T10:23:47.031Z,40.88
2019-02-27T10:24:47.023Z,41.05
2019-02-27T10:25:47.018Z,41.04
2019-02-27T10:26:47.054Z,40.68
2019-02-27T10:27:47.397Z,40.52
2019-02-27T10:28:46.993Z,40.70
2019-02-27T10:29:47.904Z,40.87
2019-02-27T10:30:50.111Z,41.09
2019-02-27T10:31:46.975Z,40.85
2019-02-27T10:32:46.974Z,40.73
2019-02-27T10:33:46.954Z,41.05
2019-02-27T10:34:46.947Z,41.39
2019-02-27T10:35:46.942Z,49.15
2019-02-27T10:36:47.703Z,48.96
2019-02-27T10:37:50.410Z,40.76
2019-02-27T10:38:46.930Z,40.47
2019-02-27T10:39:46.914Z,41.06
2019-02-27T10:40:46.900Z,40.90
2019-02-27T10:41:49.903Z,40.39
2019-02-27T10:42:46.884Z,41.09
2019-02-27T10:43:46.882Z,40.55
2019-02-27T10:44:46.870Z,41.32
2019-02-27T10:45:49.307Z,41.20
2019-02-27T10:46:46.856Z,41.74
2019-02-27T10:47:46.848Z,41.92
2019-02-27T10:48:47.532Z,41.57
2019-02-27T10:49:46.835Z,40.79
2019-02-27T10:50:46.872Z,41.36
2019-02-27T10:51:46.820Z,41.14
2019-02-27T10:52:46.817Z,41.62
2019-02-27T10:53:46.807Z,50.77
2019-02-27T10:54:46.797Z,48.84
2019-02-27T10:55:49.265Z,41.32
2019-02-27T10:56:46.782Z,41.80
2019-02-27T10:57:46.773Z,42.05
2019-02-27T10:58:47.541Z,41.75
2019-02-27T10:59:46.757Z,45.72
2019-02-27T11:00:46.752Z,54.01
2019-02-27T11:01:46.741Z,53.58
2019-02-27T11:02:47.895Z,54.65
2019-02-27T11:03:46.735Z,53.57
2019-02-27T11:04:46.731Z,53.47
2019-02-27T11:05:46.712Z,49.65
2019-02-27T11:06:46.705Z,50.07
2019-02-27T11:07:46.701Z,50.94
2019-02-27T11:08:46.701Z,53.09
2019-02-27T11:09:46.681Z,53.35
2019-02-27T11:10:46.675Z,53.41
2019-02-27T11:11:48.638Z,53.81
2019-02-27T11:12:46.658Z,54.01
2019-02-27T11:13:48.422Z,48.53
2019-02-27T11:14:46.642Z,50.85
2019-02-27T11:15:46.635Z,49.81
2019-02-27T11:16:46.631Z,51.56
2019-02-27T11:17:46.623Z,50.02
2019-02-27T11:18:46.635Z,49.46
2019-02-27T11:19:46.604Z,46.68
2019-02-27T11:20:46.597Z,49.71
2019-02-27T11:21:46.590Z,50.38
2019-02-27T11:22:46.581Z,50.25
2019-02-27T11:23:46.576Z,45.57
2019-02-27T11:24:49.270Z,45.30
2019-02-27T11:25:46.558Z,45.69
2019-02-27T11:26:46.552Z,45.77
2019-02-27T11:27:46.562Z,46.40
2019-02-27T11:28:47.711Z,46.52
2019-02-27T11:29:46.531Z,46.50
2019-02-27T11:30:46.527Z,46.31
2019-02-27T11:31:46.517Z,46.87
2019-02-27T11:32:46.505Z,46.90
2019-02-27T11:33:46.499Z,46.37
2019-02-27T11:34:48.439Z,41.92
2019-02-27T11:35:46.489Z,42.81
2019-02-27T11:36:46.476Z,41.64
2019-02-27T11:37:47.458Z,41.27
2019-02-27T11:38:46.459Z,41.96
2019-02-27T11:39:46.455Z,40.79
2019-02-27T11:40:46.449Z,41.24
2019-02-27T11:41:48.458Z,40.69
2019-02-27T11:42:46.426Z,41.46
2019-02-27T11:43:46.424Z,40.62
2019-02-27T11:44:49.406Z,40.99
2019-02-27T11:45:46.408Z,40.68
2019-02-27T11:46:46.397Z,41.23
2019-02-27T11:47:48.062Z,41.09
2019-02-27T11:48:46.381Z,41.44
2019-02-27T11:49:46.376Z,41.06
2019-02-27T11:50:46.368Z,41.22
2019-02-27T11:51:46.363Z,41.89
2019-02-27T11:52:49.073Z,40.83
2019-02-27T11:53:46.347Z,41.84
2019-02-27T11:54:46.357Z,42.19
2019-02-27T11:55:47.047Z,41.28
2019-02-27T11:56:46.321Z,41.42
2019-02-27T11:57:46.313Z,40.85
2019-02-27T11:58:46.302Z,41.25
2019-02-27T11:59:46.990Z,41.67
2019-02-27T12:00:46.293Z,41.03
2019-02-27T12:01:46.283Z,41.20
2019-02-27T12:02:46.274Z,40.93
2019-02-27T12:03:46.560Z,40.68
2019-02-27T12:04:46.260Z,40.55
2019-02-27T12:05:46.251Z,40.80
2019-02-27T12:06:46.240Z,40.64
2019-02-27T12:07:50.693Z,40.85
2019-02-27T12:08:46.226Z,40.62
2019-02-27T12:09:46.220Z,40.84
2019-02-27T12:10:46.215Z,40.81
2019-02-27T12:11:48.694Z,41.02
2019-02-27T12:12:46.195Z,41.27
2019-02-27T12:13:46.191Z,40.52
2019-02-27T12:14:46.181Z,40.63
2019-02-27T12:15:46.173Z,40.96
2019-02-27T12:16:48.626Z,41.18
2019-02-27T12:17:47.158Z,40.91
2019-02-27T12:18:46.148Z,41.12
2019-02-27T12:19:46.141Z,41.33
2019-02-27T12:20:46.136Z,40.92
2019-02-27T12:21:46.131Z,41.00
2019-02-27T12:22:46.118Z,40.95
2019-02-27T12:23:46.110Z,41.93
2019-02-27T12:24:46.103Z,41.06
2019-02-27T12:25:46.095Z,41.06
2019-02-27T12:26:46.089Z,41.02
2019-02-27T12:27:49.650Z,41.16
2019-02-27T12:28:47.495Z,41.22
2019-02-27T12:29:46.064Z,41.12
2019-02-27T12:30:46.063Z,40.59
2019-02-27T12:31:48.217Z,41.11
2019-02-27T12:32:46.040Z,40.74
2019-02-27T12:33:46.051Z,40.75
2019-02-27T12:34:46.030Z,41.07
2019-02-27T12:35:46.034Z,41.13
2019-02-27T12:36:46.015Z,40.72
2019-02-27T12:37:46.007Z,41.20
2019-02-27T12:38:45.991Z,41.16
2019-02-27T12:39:47.283Z,40.91
2019-02-27T12:40:45.982Z,40.69
2019-02-27T12:41:45.972Z,40.67
2019-02-27T12:42:45.984Z,40.86
2019-02-27T12:43:45.955Z,40.46
2019-02-27T12:44:45.945Z,40.57
2019-02-27T12:45:45.940Z,40.38
2019-02-27T12:46:45.934Z,40.86
2019-02-27T12:47:45.921Z,40.87
2019-02-27T12:48:46.405Z,41.57
2019-02-27T12:49:45.906Z,40.80
2019-02-27T12:50:45.897Z,41.67
2019-02-27T12:51:45.901Z,40.74
2019-02-27T12:52:47.924Z,40.62
2019-02-27T12:53:45.873Z,40.98
2019-02-27T12:54:45.864Z,41.31
2019-02-27T12:55:45.857Z,40.99
2019-02-27T12:56:45.850Z,40.54
2019-02-27T12:57:45.854Z,40.78
2019-02-27T12:58:45.831Z,40.76
2019-02-27T12:59:45.827Z,40.99
2019-02-27T13:00:45.816Z,40.54
2019-02-27T13:01:50.935Z,41.12
2019-02-27T13:02:46.802Z,40.55
2019-02-27T13:03:45.793Z,41.05
2019-02-27T13:04:45.782Z,40.83
2019-02-27T13:05:45.776Z,40.99
2019-02-27T13:06:45.773Z,40.89
2019-02-27T13:07:45.759Z,40.70
2019-02-27T13:08:45.751Z,40.95
2019-02-27T13:09:45.744Z,40.57
2019-02-27T13:10:45.751Z,40.58
2019-02-27T13:11:45.730Z,41.12
2019-02-27T13:12:45.721Z,40.58
2019-02-27T13:13:45.718Z,40.71
2019-02-27T13:14:45.705Z,41.41
2019-02-27T13:15:45.698Z,40.98
2019-02-27T13:16:46.393Z,40.79
2019-02-27T13:17:45.685Z,41.04
2019-02-27T13:18:46.522Z,40.77
2019-02-27T13:19:45.666Z,40.94
2019-02-27T13:20:46.291Z,40.87
2019-02-27T13:21:45.671Z,40.87
2019-02-27T13:22:45.648Z,41.66
2019-02-27T13:23:45.643Z,41.37
2019-02-27T13:24:47.049Z,40.81
2019-02-27T13:25:45.624Z,41.04
2019-02-27T13:26:45.612Z,40.83
2019-02-27T13:27:45.607Z,40.88
2019-02-27T13:28:45.984Z,40.99
2019-02-27T13:29:45.588Z,41.39
2019-02-27T13:30:45.580Z,41.11
2019-02-27T13:31:45.576Z,40.96
2019-02-27T13:32:45.572Z,40.88
2019-02-27T13:33:45.559Z,40.79
2019-02-27T13:34:48.263Z,40.94
2019-02-27T13:35:45.544Z,40.88
2019-02-27T13:36:45.539Z,41.52
2019-02-27T13:37:45.538Z,41.26
2019-02-27T13:38:45.520Z,41.13
2019-02-27T13:39:45.512Z,41.45
2019-02-27T13:40:45.503Z,40.94
2019-02-27T13:41:45.797Z,40.92
2019-02-27T13:42:45.488Z,40.94
2019-02-27T13:43:45.480Z,41.15
2019-02-27T13:44:45.470Z,40.58
2019-02-27T13:45:47.563Z,40.99
2019-02-27T13:46:45.454Z,41.53
2019-02-27T13:47:45.450Z,41.18
2019-02-27T13:48:45.438Z,41.38
2019-02-27T13:49:47.322Z,40.99
2019-02-27T13:50:45.424Z,42.31
2019-02-27T13:51:45.418Z,41.00
2019-02-27T13:52:49.906Z,41.27
2019-02-27T13:53:46.399Z,41.13
2019-02-27T13:54:45.389Z,41.29
2019-02-27T13:55:48.162Z,40.93
2019-02-27T13:56:45.370Z,40.90
2019-02-27T13:57:45.364Z,40.93
2019-02-27T13:58:45.358Z,41.80
2019-02-27T13:59:45.679Z,41.07
2019-02-27T14:00:45.343Z,41.23
2019-02-27T14:01:45.333Z,41.16
2019-02-27T14:02:45.336Z,41.19
2019-02-27T14:03:45.682Z,41.87
2019-02-27T14:04:45.312Z,41.34
2019-02-27T14:05:45.301Z,40.97
2019-02-27T14:06:47.394Z,40.80
2019-02-27T14:07:45.310Z,41.49
2019-02-27T14:08:45.285Z,44.09
2019-02-27T14:09:45.273Z,42.73
2019-02-27T14:10:45.263Z,42.70
2019-02-27T14:11:45.258Z,41.43
2019-02-27T14:12:45.249Z,41.58
2019-02-27T14:13:45.245Z,41.48
2019-02-27T14:14:45.233Z,41.51
2019-02-27T14:15:45.226Z,41.90
2019-02-27T14:16:45.219Z,41.59
2019-02-27T14:17:45.211Z,41.71
2019-02-27T14:18:49.810Z,41.63
2019-02-27T14:19:46.197Z,42.77
2019-02-27T14:20:45.193Z,41.72
2019-02-27T14:21:45.209Z,40.79
2019-02-27T14:22:45.287Z,41.34
2019-02-27T14:23:46.916Z,40.94
2019-02-27T14:24:45.161Z,41.34
2019-02-27T14:25:45.151Z,42.17
2019-02-27T14:26:45.143Z,41.53
2019-02-27T14:27:47.475Z,41.50
2019-02-27T14:28:45.132Z,40.91
2019-02-27T14:29:45.122Z,41.27
2019-02-27T14:30:45.114Z,41.03
2019-02-27T14:31:45.107Z,41.09
2019-02-27T14:32:47.340Z,41.58
2019-02-27T14:33:45.090Z,41.15
2019-02-27T14:34:45.082Z,41.11
2019-02-27T14:35:45.073Z,41.18
2019-02-27T14:36:45.066Z,40.93
2019-02-27T14:37:49.646Z,41.20
2019-02-27T14:38:45.047Z,40.92
2019-02-27T14:39:45.040Z,40.96
2019-02-27T14:40:45.040Z,41.13
2019-02-27T14:41:47.910Z,41.03
2019-02-27T14:42:45.016Z,41.27
2019-02-27T14:43:45.023Z,41.15
2019-02-27T14:44:45.009Z,41.28
2019-02-27T14:45:44.995Z,41.50
2019-02-27T14:46:45.677Z,41.08
2019-02-27T14:47:47.382Z,41.25
2019-02-27T14:48:44.987Z,41.30
2019-02-27T14:49:44.965Z,43.00
2019-02-27T14:50:44.956Z,47.14
2019-02-27T14:51:44.951Z,45.85
2019-02-27T14:52:45.729Z,43.81
2019-02-27T14:53:44.944Z,41.19
2019-02-27T14:54:44.929Z,41.90
2019-02-27T14:55:44.918Z,50.24
2019-02-27T14:56:44.917Z,50.07
2019-02-27T14:57:50.096Z,50.90
2019-02-27T14:58:45.913Z,50.46
2019-02-27T14:59:44.891Z,51.87
2019-02-27T15:00:44.880Z,50.35
2019-02-27T15:01:48.392Z,50.79
2019-02-27T15:02:44.862Z,51.48
2019-02-27T15:03:44.856Z,51.53
2019-02-27T15:04:44.848Z,52.14
2019-02-27T15:05:45.315Z,51.24
2019-02-27T15:06:44.829Z,50.93
2019-02-27T15:07:44.824Z,51.89
2019-02-27T15:08:44.815Z,50.91
2019-02-27T15:09:47.975Z,52.18
2019-02-27T15:10:44.799Z,52.52
2019-02-27T15:11:44.949Z,51.44
2019-02-27T15:12:44.785Z,51.31
2019-02-27T15:13:44.782Z,51.71
2019-02-27T15:14:44.785Z,51.45
2019-02-27T15:15:44.765Z,52.90
2019-02-27T15:16:49.061Z,50.91
2019-02-27T15:17:45.745Z,52.29
2019-02-27T15:18:44.739Z,52.50
2019-02-27T15:19:44.740Z,50.94
2019-02-27T15:20:44.724Z,51.56
2019-02-27T15:21:46.554Z,52.65
2019-02-27T15:22:44.709Z,52.56
2019-02-27T15:23:44.698Z,51.15
2019-02-27T15:24:44.700Z,52.64
2019-02-27T15:25:44.683Z,49.39
2019-02-27T15:26:45.453Z,50.53
2019-02-27T15:27:44.665Z,49.63
2019-02-27T15:28:44.659Z,50.48
2019-02-27T15:29:44.780Z,49.63
2019-02-27T15:30:46.638Z,52.65
2019-02-27T15:31:44.635Z,50.18
2019-02-27T15:32:44.628Z,50.46
2019-02-27T15:33:44.620Z,52.25
2019-02-27T15:34:45.953Z,52.04
2019-02-27T15:35:44.610Z,50.37
2019-02-27T15:36:44.597Z,50.51
2019-02-27T15:37:44.599Z,50.35
2019-02-27T15:38:46.078Z,57.71
2019-02-27T15:39:44.572Z,48.58
2019-02-27T15:40:44.576Z,43.35
2019-02-27T15:41:44.558Z,42.92
2019-02-27T15:42:44.549Z,42.13
2019-02-27T15:43:44.545Z,41.27
2019-02-27T15:44:44.532Z,41.76
2019-02-27T15:45:48.022Z,41.97
2019-02-27T15:46:44.519Z,41.65
2019-02-27T15:47:44.532Z,41.48
2019-02-27T15:48:44.504Z,41.47
2019-02-27T15:49:46.106Z,41.69
2019-02-27T15:50:44.497Z,41.40
2019-02-27T15:51:44.485Z,42.03
2019-02-27T15:52:44.477Z,41.96
2019-02-27T15:53:49.613Z,42.07
2019-02-27T15:54:45.457Z,41.77
2019-02-27T15:55:44.463Z,41.45
2019-02-27T15:56:45.518Z,41.27
2019-02-27T15:57:44.440Z,41.15
2019-02-27T15:58:44.431Z,41.17
2019-02-27T15:59:44.419Z,41.07
2019-02-27T16:00:44.424Z,41.35
2019-02-27T16:01:44.415Z,41.59
2019-02-27T16:02:44.399Z,41.26
2019-02-27T16:03:45.574Z,42.57
2019-02-27T16:04:44.384Z,41.66
2019-02-27T16:05:44.400Z,41.32
2019-02-27T16:06:44.368Z,41.66
2019-02-27T16:07:48.537Z,41.14
2019-02-27T16:08:44.352Z,41.09
2019-02-27T16:09:46.137Z,41.73
2019-02-27T16:10:54.374Z,41.67
2019-02-27T16:11:48.066Z,41.37
2019-02-27T16:12:45.319Z,41.91
2019-02-27T16:13:44.318Z,41.93
2019-02-27T16:14:44.306Z,41.58
2019-02-27T16:15:44.781Z,41.40
2019-02-27T16:16:44.295Z,41.71
2019-02-27T16:17:44.284Z,41.88
2019-02-27T16:18:44.277Z,41.60
2019-02-27T16:19:44.719Z,41.08
2019-02-27T16:20:47.033Z,41.31
2019-02-27T16:21:45.264Z,41.12
2019-02-27T16:22:44.248Z,41.03
2019-02-27T16:23:44.238Z,41.73
2019-02-27T16:24:44.230Z,41.34
2019-02-27T16:25:44.227Z,41.75
2019-02-27T16:26:44.222Z,42.12
2019-02-27T16:27:44.207Z,41.77
2019-02-27T16:28:46.143Z,41.56
2019-02-27T16:29:44.193Z,41.42
2019-02-27T16:30:44.184Z,41.67
2019-02-27T16:31:44.183Z,41.04
2019-02-27T16:32:48.059Z,41.08
2019-02-27T16:33:45.159Z,40.90
2019-02-27T16:34:44.151Z,41.25
2019-02-27T16:35:46.319Z,41.90
2019-02-27T16:36:46.876Z,41.19
2019-02-27T16:37:44.129Z,41.10
2019-02-27T16:38:44.123Z,41.52
2019-02-27T16:39:45.746Z,41.39
2019-02-27T16:40:44.103Z,41.54
2019-02-27T16:41:45.098Z,42.02
2019-02-27T16:42:44.099Z,41.39
2019-02-27T16:43:47.744Z,41.90
2019-02-27T16:44:44.077Z,41.67
2019-02-27T16:45:44.067Z,42.16
2019-02-27T16:46:44.934Z,41.17
2019-02-27T16:47:44.053Z,41.49
2019-02-27T16:48:44.053Z,41.84
2019-02-27T16:49:44.038Z,41.13
2019-02-27T16:50:45.576Z,41.05
2019-02-27T16:51:44.020Z,41.18
2019-02-27T16:52:44.047Z,41.27
2019-02-27T16:53:44.014Z,40.95
2019-02-27T16:54:44.001Z,41.68
2019-02-27T16:55:43.990Z,42.53
2019-02-27T16:56:47.647Z,42.55
2019-02-27T16:57:44.996Z,42.44
2019-02-27T16:58:43.971Z,41.07
2019-02-27T16:59:45.433Z,41.93
2019-02-27T17:00:43.957Z,40.70
2019-02-27T17:01:43.944Z,41.14
2019-02-27T17:02:43.937Z,41.71
2019-02-27T17:03:45.173Z,41.28
2019-02-27T17:04:44.919Z,43.98
2019-02-27T17:05:44.002Z,41.28
2019-02-27T17:06:43.909Z,41.66
2019-02-27T17:07:43.902Z,41.50
2019-02-27T17:08:43.895Z,42.72
2019-02-27T17:09:44.647Z,43.68
2019-02-27T17:10:43.878Z,43.82
2019-02-27T17:11:43.871Z,44.61
2019-02-27T17:12:43.864Z,45.24
2019-02-27T17:13:43.859Z,46.41
2019-02-27T17:14:44.753Z,43.49
2019-02-27T17:15:43.844Z,47.03
2019-02-27T17:16:44.930Z,42.60
2019-02-27T17:17:43.827Z,41.29
2019-02-27T17:18:43.825Z,43.54
2019-02-27T17:19:43.813Z,40.70
2019-02-27T17:20:46.605Z,40.67
2019-02-27T17:21:43.797Z,40.76
2019-02-27T17:22:43.789Z,40.71
2019-02-27T17:23:46.593Z,40.88
2019-02-27T17:24:43.772Z,40.63
2019-02-27T17:25:43.765Z,40.63
2019-02-27T17:26:43.802Z,40.71
2019-02-27T17:27:43.754Z,40.64
2019-02-27T17:28:43.742Z,40.68
2019-02-27T17:29:43.735Z,40.83
2019-02-27T17:30:43.732Z,40.69
2019-02-27T17:31:49.278Z,40.73
2019-02-27T17:32:44.711Z,40.77
2019-02-27T17:33:43.707Z,40.69
2019-02-27T17:34:47.231Z,40.66
2019-02-27T17:35:43.701Z,40.65
2019-02-27T17:36:43.678Z,40.57
2019-02-27T17:37:43.673Z,40.63
2019-02-27T17:38:45.249Z,40.68
2019-02-27T17:39:45.470Z,40.61
2019-02-27T17:40:43.647Z,40.68
2019-02-27T17:41:44.691Z,40.58
2019-02-27T17:42:43.634Z,40.64
2019-02-27T17:43:43.634Z,40.67
2019-02-27T17:44:43.614Z,40.60
2019-02-27T17:45:44.274Z,41.92
2019-02-27T17:46:43.598Z,42.25
2019-02-27T17:47:43.589Z,41.06
2019-02-27T17:48:45.949Z,42.22
2019-02-27T17:49:43.577Z,41.50
2019-02-27T17:50:43.568Z,40.78
2019-02-27T17:51:43.565Z,42.46
2019-02-27T17:52:48.552Z,40.67
2019-02-27T17:53:44.587Z,40.72
2019-02-27T17:54:43.538Z,42.68
2019-02-27T17:55:43.527Z,41.57
2019-02-27T17:56:43.517Z,41.76
2019-02-27T17:57:43.523Z,41.21
2019-02-27T17:58:43.504Z,41.74
2019-02-27T17:59:43.498Z,41.68
2019-02-27T18:00:43.490Z,41.38
2019-02-27T18:01:43.482Z,41.37
2019-02-27T18:02:43.479Z,45.67
2019-02-27T18:03:43.466Z,47.15
2019-02-27T18:04:45.300Z,45.81
2019-02-27T18:05:44.448Z,54.64
2019-02-27T18:06:43.444Z,45.96
2019-02-27T18:07:43.511Z,40.70
2019-02-27T18:08:43.427Z,41.26
2019-02-27T18:09:43.423Z,41.32
2019-02-27T18:10:43.414Z,43.37
2019-02-27T18:11:43.408Z,46.68
2019-02-27T18:12:43.402Z,44.54
2019-02-27T18:13:43.390Z,42.60
2019-02-27T18:14:46.723Z,48.63
2019-02-27T18:15:43.374Z,45.74
2019-02-27T18:16:43.367Z,46.08
2019-02-27T18:17:43.363Z,45.70
2019-02-27T18:18:44.015Z,46.92
2019-02-27T18:19:43.345Z,46.22
2019-02-27T18:20:43.344Z,48.31
2019-02-27T18:21:43.331Z,48.26
2019-02-27T18:22:45.886Z,47.56
2019-02-27T18:23:44.325Z,48.18
2019-02-27T18:24:43.326Z,47.76
2019-02-27T18:25:43.301Z,47.59
2019-02-27T18:26:43.291Z,46.22
2019-02-27T18:27:43.292Z,47.49
2019-02-27T18:28:43.276Z,46.54
2019-02-27T18:29:43.710Z,47.28
2019-02-27T18:30:43.264Z,46.85
2019-02-27T18:31:43.255Z,46.59
2019-02-27T18:32:43.247Z,46.51
2019-02-27T18:33:43.241Z,47.21
2019-02-27T18:34:43.232Z,46.38
2019-02-27T18:35:43.229Z,46.85
2019-02-27T18:36:46.480Z,45.85
2019-02-27T18:37:43.209Z,47.21
2019-02-27T18:38:43.205Z,44.26
2019-02-27T18:39:43.196Z,46.61
2019-02-27T18:40:43.639Z,47.17
2019-02-27T18:41:45.757Z,47.64
2019-02-27T18:42:43.171Z,46.79
2019-02-27T18:43:43.165Z,47.39
2019-02-27T18:44:43.162Z,47.68
2019-02-27T18:45:43.148Z,48.38
2019-02-27T18:46:43.139Z,47.87
2019-02-27T18:47:43.134Z,48.72
2019-02-27T18:48:43.861Z,47.23
2019-02-27T18:49:43.116Z,47.28
2019-02-27T18:50:43.112Z,48.02
2019-02-27T18:51:43.100Z,47.33
2019-02-27T18:52:43.093Z,46.99
2019-02-27T18:53:47.352Z,46.96
2019-02-27T18:54:44.079Z,47.93
2019-02-27T18:55:44.074Z,47.00
2019-02-27T18:56:43.103Z,46.76
2019-02-27T18:57:45.992Z,48.18
2019-02-27T18:58:43.050Z,47.60
2019-02-27T18:59:43.043Z,47.17
2019-02-27T19:00:43.034Z,47.84
2019-02-27T19:01:45.208Z,47.27
2019-02-27T19:02:43.019Z,47.10
2019-02-27T19:03:43.014Z,46.29
2019-02-27T19:04:43.002Z,47.76
2019-02-27T19:05:43.003Z,46.16
2019-02-27T19:06:43.127Z,46.46
2019-02-27T19:07:42.981Z,45.09
2019-02-27T19:08:42.976Z,46.24
2019-02-27T19:09:42.970Z,47.43
2019-02-27T19:10:42.968Z,46.75
2019-02-27T19:11:42.951Z,46.52
2019-02-27T19:12:42.945Z,46.69
2019-02-27T19:13:42.942Z,46.24
2019-02-27T19:14:42.935Z,46.07
2019-02-27T19:15:46.296Z,45.35
2019-02-27T19:16:42.914Z,45.79
2019-02-27T19:17:42.907Z,46.21
2019-02-27T19:18:42.900Z,46.65
2019-02-27T19:19:42.893Z,46.46
2019-02-27T19:20:42.887Z,46.30
2019-02-27T19:21:42.879Z,46.28
2019-02-27T19:22:43.837Z,45.69
2019-02-27T19:23:42.867Z,45.55
2019-02-27T19:24:42.860Z,45.44
2019-02-27T19:25:42.855Z,48.56
2019-02-27T19:26:44.355Z,48.82
2019-02-27T19:27:42.832Z,51.91
2019-02-27T19:28:42.826Z,40.91
2019-02-27T19:29:42.817Z,41.18
2019-02-27T19:30:42.820Z,47.58
2019-02-27T19:31:42.805Z,45.49
2019-02-27T19:32:42.801Z,48.31
2019-02-27T19:33:42.787Z,46.36
2019-02-27T19:34:44.727Z,47.68
2019-02-27T19:35:42.804Z,47.40
2019-02-27T19:36:42.766Z,47.36
2019-02-27T19:37:42.756Z,52.17
2019-02-27T19:38:44.192Z,50.49
2019-02-27T19:39:42.743Z,45.67
2019-02-27T19:40:42.750Z,49.07
2019-02-27T19:41:42.726Z,48.34
2019-02-27T19:42:44.452Z,50.55
2019-02-27T19:43:42.709Z,51.00
2019-02-27T19:44:42.704Z,50.61
2019-02-27T19:45:42.695Z,50.10
2019-02-27T19:46:47.510Z,48.17
2019-02-27T19:47:43.675Z,48.03
2019-02-27T19:48:42.667Z,48.61
2019-02-27T19:49:42.662Z,47.13
2019-02-27T19:50:46.266Z,48.24
2019-02-27T19:51:42.648Z,49.12
2019-02-27T19:52:42.640Z,48.60
2019-02-27T19:53:42.821Z,48.13
2019-02-27T19:54:42.621Z,48.16
2019-02-27T19:55:42.615Z,48.17
2019-02-27T19:56:42.613Z,46.93
2019-02-27T19:57:43.539Z,48.70
2019-02-27T19:58:42.595Z,49.07
2019-02-27T19:59:42.583Z,48.11
2019-02-27T20:00:48.316Z,48.76
2019-02-27T20:01:48.328Z,47.99